If you wish to contribute or participate in the discussions about articles you are invited to join SKYbrary as a registered user

 Actions

SCFA

From SKYbrary Wiki

Airport
ICAO: SCFA – IATA: ANF
Summary
Name Andres Sabella Galvez International Airport
Region South America and Caribbean
Territory Chile CL.gif
Location La Chimba, Antofagasta
Serving Antofagasta
Elevation 138.684 m
455 ft
Type medium airport
Coordinates -23° 26' 40.1208", -70° 26' 42.36"
Runways
Designator Length Width Surface ROPS
1/19 2599 m8,526.903 ft 50 m164.042 ft ASP /


METAR
Observation SCFA 250400Z 20003KT CAVOK 20/16 Q1015 NOSIG
Station Antofagasta
Date/Time 25 February 2018 04:00:00
Wind direction 200°
Wind speed 03 kts
Lowest cloud amount clouds and visibility OK
Temperature 20°C
Dew point 16°C
Humidity 77%
QNH 1015 hPa
Weather condition n/a

International airport 6.2 nm11,482.4 m
11.482 km
37,671.916 ft
north of Antofagasta, Chile.

Climatology

Mild desert climate (Köppen climate classification BWn)

Maps

Terrain

Airport Layout

Accidents & Serious Incidents at or in vicinity of SCFA

None on SKYbrary